Nearby METAR Reports

METAR is the scheduled surface weather observation taken hourly at civil and military airport locations.

METAR is an acronym from the French language and roughly translates as Aviation Routine Weather Report.

 

EGPL - Benbecula Island, United Kingdom
Distance from station: WNW 41mi, 66km
Updated: 20/09/2017 18:50
Overcast
Overcast
 Wind from ESE
Wind: ESE 5 mph , 7 km/h
Temperature: 12°C
Dew Point: 9°C
Humidity: 82%
Barometer: 1010 hPa
Clouds: Overcast
Visibility: 6 miles , 10 km
Cloud details: Mostly cloudy 1189 m
Overcast 1341 m
2017/09/20 17:50 EGPL 201750Z AUTO 12004KT 340V140 9999 BKN039/// OVC044/// 12/09 Q1010
EGPU - Tiree Island, United Kingdom
Distance from station: SSW 56mi, 90km
Updated: 20/09/2017 18:50
Light rain, Few clouds
Light rain, Few clouds
 Wind from N
Wind: N 8 mph , 13 km/h
Temperature: 11°C
Dew Point: 10°C
Humidity: 94%
Barometer: 1009 hPa
Summary: Light rain
Clouds: Few Clouds
Visibility: 6 miles , 10 km
Cloud details: Few Clouds 518 m
2017/09/20 17:50 EGPU 201750Z AUTO 01007KT 9999 -RA FEW017/// 11/10 Q1009
 
EGEO - Oban Airport, United Kingdom
Distance from station: SE 65mi, 105km
Updated: 20/09/2017 15:50
NOT Current
Light rain, Overcast
Light rain, Overcast
 Wind from W
Wind: W 15 mph , 24 km/h
Temperature: 13°C
Dew Point: 12°C
Humidity: 94%
Barometer: 1010 hPa
Summary: Light rain
Clouds: Overcast
Visibility: 3 miles , 5 km
Cloud details: Few Clouds 61 m
Mostly cloudy 305 m
Overcast 549 m
2017/09/20 14:50 EGEO 201450Z 28013KT 5000 -RA FEW002 BKN010 OVC018 13/12 Q1010
EGPO - Stornoway, United Kingdom
Distance from station: 0 66mi, 106km
Updated: 20/09/2017 18:50
Mostly cloudy
Mostly cloudy
 Wind from NNW
Wind: NNW 1 mph , 2 km/h
Temperature: 12°C
Dew Point: 9°C
Humidity: 82%
Barometer: 1010 hPa
Clouds: Mostly cloudy
Visibility: 6 miles , 10 km
Cloud details: Few Clouds 732 m
Mostly cloudy 1158 m
2017/09/20 17:50 EGPO 201750Z 33001KT 9999 FEW024 BKN038 12/09 Q1010
 
EGPE - Inverness/Dalcro, United Kingdom
Distance from station: ENE 88mi, 141km
Updated: 20/09/2017 18:50
Light rain, Mostly cloudy
Light rain, Mostly cloudy
 Wind from E
Wind: E 6 mph , 9 km/h
Temperature: 13°C
Dew Point: 12°C
Humidity: 94%
Barometer: 1008 hPa
Summary: Light rain
Clouds: Mostly cloudy
Visibility: 2 miles , 3 km
Cloud details: Partly cloudy 61 m
Mostly cloudy 122 m
2017/09/20 17:50 EGPE 201750Z 09005KT 3000 -RA SCT002 BKN004 13/12 Q1008
EGQA - Tain Range (saws, United Kingdom
Distance from station: ENE 97mi, 156km
Updated: 20/09/2017 14:50
NOT Current
Light rain, Mostly cloudy
Light rain, Mostly cloudy
 Wind from NW
Wind: NW 18 mph , 30 km/h
Summary: Light rain
Clouds: Mostly cloudy
Visibility: 6 miles , 10 km
Cloud details: Few Clouds 274 m
Partly cloudy 396 m
Mostly cloudy 914 m
2017/09/20 13:50 EGQA 201350Z 31016KT 9999 7000NW -RA FEW009 SCT013 BKN030 15/// Q1008 GRN
 
EGQK - Kinloss Raf, United Kingdom
Distance from station: ENE 107mi, 171km
Updated: 20/09/2017 18:50
Rain, Mostly cloudy
Rain, Mostly cloudy
 Wind from NNW
Wind: NNW 5 mph , 7 km/h
Temperature: 13°C
Dew Point: 12°C
Humidity: 94%
Barometer: 1008 hPa
Summary: Rain
Clouds: Mostly cloudy
Visibility: 4 miles , 7 km
Cloud details: Few Clouds 152 m
Mostly cloudy 457 m
2017/09/20 17:50 EGQK 201750Z AUTO 33004KT 7000 RA FEW005/// BKN015/// 13/12 Q1008
EGPI - Islay/Port Ellen, United Kingdom
Distance from station: S 110mi, 177km
Updated: 20/09/2017 18:50
Light rain, Drizzle, Clear
Light rain, Drizzle, Clear
 Wind from N
Wind: N 8 mph , 13 km/h
Temperature: 11°C
Dew Point: 11°C
Humidity: 100%
Barometer: 1008 hPa
Summary: Light rain, Drizzle
Clouds: Clear
Visibility: 6 miles , 10 km
2017/09/20 17:50 EGPI 201750Z AUTO 35007KT 9999 -RADZ NCD 11/11 Q1008
 
EGQS - Lossiemouth Raf, United Kingdom
Distance from station: ENE 117mi, 188km
Updated: 20/09/2017 18:50
Rain, Mostly cloudy
Rain, Mostly cloudy
 Wind from NNE
Wind: NNE 12 mph , 19 km/h
Temperature: 12°C
Dew Point: 12°C
Humidity: 100%
Barometer: 1008 hPa
Summary: Rain
Clouds: Mostly cloudy
Visibility: 2 miles , 4 km
Cloud details: Partly cloudy 122 m
Mostly cloudy 305 m
2017/09/20 17:50 EGQS 201750Z 03010KT 4000 RA SCT004 BKN010 12/12 Q1008 YLO2
EGPF - Glasgow Airport, United Kingdom
Distance from station: SE 121mi, 195km
Updated: 20/09/2017 18:50
Light drizzle, Overcast
Light drizzle, Overcast
 Wind from NNW
Wind: NNW 2 mph , 4 km/h
Temperature: 15°C
Dew Point: 14°C
Humidity: 94%
Barometer: 1007 hPa
Summary: Light Drizzle
Clouds: Overcast
Visibility: 3 miles , 5 km
Cloud details: Mostly cloudy 213 m
Overcast 335 m
2017/09/20 17:50 EGPF 201750Z AUTO 33002KT 5000 -DZ BKN007 OVC011 15/14 Q1007 RERA REDZ
 
EGEC - Campbeltown, United Kingdom
Distance from station: SSE 129mi, 207km
Updated: 20/09/2017 17:20
NOT Current
Rain, Mostly cloudy
Rain, Mostly cloudy
 Wind from N
Wind: N 10 mph , 17 km/h
Temperature: 12°C
Dew Point: 12°C
Humidity: 100%
Barometer: 1008 hPa
Summary: Rain
Clouds: Mostly cloudy
Visibility: 4 miles , 6 km
Cloud details: Few Clouds 183 m
Partly cloudy 518 m
Mostly cloudy 1341 m
2017/09/20 16:20 EGEC 201620Z 35009KT 6000 RA FEW006 SCT017 BKN044 12/12 Q1008
EGPN - Dundee/Riverside, United Kingdom
Distance from station: ESE 137mi, 221km
Updated: 20/09/2017 18:50
Rain, Mostly cloudy
Rain, Mostly cloudy
 Wind from SE
Wind: SE 3 mph , 6 km/h
Temperature: 15°C
Dew Point: 14°C
Humidity: 94%
Barometer: 1008 hPa
Summary: Rain
Clouds: Mostly cloudy
Visibility: 4 miles , 7 km
Cloud details: Few Clouds 366 m
Mostly cloudy 610 m
2017/09/20 17:50 EGPN 201750Z 13003KT 7000 RA FEW012 BKN020 15/14 Q1008
 
EGPK - Prestwick(Civ/Na, United Kingdom
Distance from station: SSE 139mi, 224km
Updated: 20/09/2017 18:50
Light rain, Mostly cloudy
Light rain, Mostly cloudy
 Wind from SE
Wind: SE 2 mph , 4 km/h
Temperature: 15°C
Dew Point: 14°C
Humidity: 94%
Barometer: 1007 hPa
Summary: Light rain
Clouds: Mostly cloudy
Visibility: 3 miles , 5 km
Cloud details: Partly cloudy 122 m
Mostly cloudy 610 m
2017/09/20 17:50 EGPK 201750Z 14002KT 5000 -RA SCT004 BKN020 15/14 Q1007
EGQL - Leuchars Raf, United Kingdom
Distance from station: ESE 145mi, 233km
Updated: 20/09/2017 18:50
Rain, Mostly cloudy
Rain, Mostly cloudy
 Wind from S
Wind: S 6 mph , 9 km/h
Temperature: 15°C
Dew Point: 14°C
Humidity: 94%
Barometer: 1008 hPa
Summary: Rain
Clouds: Mostly cloudy
Visibility: 3 miles , 5 km
Cloud details: Mostly cloudy 732 m
Mostly cloudy 975 m
2017/09/20 17:50 EGQL 201750Z 19005KT 5000 RA BKN024 BKN032 15/14 Q1008 WHT
 
EGPH - Edinburgh Airpor, United Kingdom
Distance from station: SE 145mi, 234km
Updated: 20/09/2017 18:50
Partly cloudy
Partly cloudy
 Wind from S
Wind: S 13 mph , 20 km/h
Temperature: 16°C
Dew Point: 13°C
Humidity: 83%
Barometer: 1008 hPa
Clouds: Partly cloudy
Visibility: 6 miles , 10 km
Cloud details: Few Clouds 549 m
Partly cloudy 1494 m
2017/09/20 17:50 EGPH 201750Z 19011KT 9999 FEW018 SCT049 16/13 Q1008
EGPC - Wick, United Kingdom
Distance from station: NE 146mi, 234km
Updated: 20/09/2017 18:50
Light rain, Drizzle, Mostly cloudy
Light rain, Drizzle, Mostly cloudy
 Wind from NW
Wind: NW 12 mph , 19 km/h
Temperature: 11°C
Dew Point: 11°C
Humidity: 100%
Barometer: 1008 hPa
Summary: Light rain, Drizzle
Clouds: Mostly cloudy
Visibility: 4 miles , 6 km
Cloud details: Few Clouds 122 m
Partly cloudy 183 m
Mostly cloudy 610 m
2017/09/20 17:50 EGPC 201750Z 31010KT 6000 -RADZ FEW004 SCT006 BKN020 11/11 Q1008

-

free counters
QR Code Twitter Scottish Weather Network UK Weather Network
Argyll House B & B

Argyll House B & B is situated in North West Skye and is the perfect base to see all that the Isle of Skye has to offer.
Bookings been taken for 2017.